sensor_id;sensor_type;location;lat;lon;timestamp;P1;durP1;ratioP1;P2;durP2;ratioP2
4971;SDS011;2501;51.214;6.768;2022-07-11T00:01:08;5.43;;;2.47;;
4971;SDS011;2501;51.214;6.768;2022-07-11T00:03:37;10.27;;;2.80;;
4971;SDS011;2501;51.214;6.768;2022-07-11T00:06:05;5.95;;;3.10;;
4971;SDS011;2501;51.214;6.768;2022-07-11T00:08:34;4.70;;;2.63;;
4971;SDS011;2501;51.214;6.768;2022-07-11T00:11:02;7.43;;;3.10;;
4971;SDS011;2501;51.214;6.768;2022-07-11T00:13:33;3.97;;;2.60;;
4971;SDS011;2501;51.214;6.768;2022-07-11T00:16:02;4.63;;;3.20;;
4971;SDS011;2501;51.214;6.768;2022-07-11T00:18:31;4.90;;;3.00;;
4971;SDS011;2501;51.214;6.768;2022-07-11T00:20:59;5.40;;;3.00;;
4971;SDS011;2501;51.214;6.768;2022-07-11T00:23:28;4.10;;;2.80;;
4971;SDS011;2501;51.214;6.768;2022-07-11T00:25:56;4.70;;;2.85;;
4971;SDS011;2501;51.214;6.768;2022-07-11T00:28:25;2.70;;;2.50;;
4971;SDS011;2501;51.214;6.768;2022-07-11T00:30:56;7.57;;;3.10;;
4971;SDS011;2501;51.214;6.768;2022-07-11T00:33:24;4.50;;;2.53;;
4971;SDS011;2501;51.214;6.768;2022-07-11T00:35:53;7.05;;;2.88;;
4971;SDS011;2501;51.214;6.768;2022-07-11T00:38:21;6.75;;;2.70;;
4971;SDS011;2501;51.214;6.768;2022-07-11T00:40:49;7.10;;;3.10;;
4971;SDS011;2501;51.214;6.768;2022-07-11T00:43:18;4.80;;;2.78;;
4971;SDS011;2501;51.214;6.768;2022-07-11T00:46:00;3.40;;;2.80;;
4971;SDS011;2501;51.214;6.768;2022-07-11T00:48:29;4.90;;;3.20;;
4971;SDS011;2501;51.214;6.768;2022-07-11T00:50:58;4.50;;;2.90;;
4971;SDS011;2501;51.214;6.768;2022-07-11T00:53:29;3.22;;;2.92;;
4971;SDS011;2501;51.214;6.768;2022-07-11T00:55:59;8.07;;;3.45;;
4971;SDS011;2501;51.214;6.768;2022-07-11T00:58:33;7.80;;;3.17;;
4971;SDS011;2501;51.214;6.768;2022-07-11T01:01:05;5.35;;;3.67;;
4971;SDS011;2501;51.214;6.768;2022-07-11T01:03:39;8.38;;;3.60;;
4971;SDS011;2501;51.214;6.768;2022-07-11T01:06:15;5.30;;;3.20;;
4971;SDS011;2501;51.214;6.768;2022-07-11T01:08:49;5.10;;;2.95;;
4971;SDS011;2501;51.214;6.768;2022-07-11T01:11:18;10.55;;;3.38;;
4971;SDS011;2501;51.214;6.768;2022-07-11T01:13:46;6.63;;;3.60;;
4971;SDS011;2501;51.214;6.768;2022-07-11T01:16:18;7.80;;;3.30;;
4971;SDS011;2501;51.214;6.768;2022-07-11T01:18:50;6.50;;;4.20;;
4971;SDS011;2501;51.214;6.768;2022-07-11T01:21:24;4.13;;;3.40;;
4971;SDS011;2501;51.214;6.768;2022-07-11T01:23:59;7.43;;;3.60;;
4971;SDS011;2501;51.214;6.768;2022-07-11T01:26:29;5.10;;;3.30;;
4971;SDS011;2501;51.214;6.768;2022-07-11T01:29:04;6.70;;;3.83;;
4971;SDS011;2501;51.214;6.768;2022-07-11T01:31:34;10.13;;;3.80;;
4971;SDS011;2501;51.214;6.768;2022-07-11T01:34:03;4.00;;;3.55;;
4971;SDS011;2501;51.214;6.768;2022-07-11T01:36:31;4.53;;;3.53;;
4971;SDS011;2501;51.214;6.768;2022-07-11T01:39:02;5.90;;;3.42;;
4971;SDS011;2501;51.214;6.768;2022-07-11T01:41:33;6.55;;;3.70;;
4971;SDS011;2501;51.214;6.768;2022-07-11T01:44:02;8.00;;;3.70;;
4971;SDS011;2501;51.214;6.768;2022-07-11T01:46:31;5.55;;;3.45;;
4971;SDS011;2501;51.214;6.768;2022-07-11T01:48:59;6.45;;;3.90;;
4971;SDS011;2501;51.214;6.768;2022-07-11T01:51:31;3.67;;;3.38;;
4971;SDS011;2501;51.214;6.768;2022-07-11T01:53:59;7.67;;;3.50;;
4971;SDS011;2501;51.214;6.768;2022-07-11T01:56:30;7.70;;;3.60;;
4971;SDS011;2501;51.214;6.768;2022-07-11T01:58:59;7.45;;;3.63;;
4971;SDS011;2501;51.214;6.768;2022-07-11T02:01:28;8.40;;;3.30;;
4971;SDS011;2501;51.214;6.768;2022-07-11T02:03:56;4.93;;;4.07;;
4971;SDS011;2501;51.214;6.768;2022-07-11T02:06:25;8.88;;;3.90;;
4971;SDS011;2501;51.214;6.768;2022-07-11T02:08:54;8.27;;;3.72;;
4971;SDS011;2501;51.214;6.768;2022-07-11T02:11:22;6.85;;;3.83;;
4971;SDS011;2501;51.214;6.768;2022-07-11T02:13:54;11.07;;;4.10;;
4971;SDS011;2501;51.214;6.768;2022-07-11T02:16:22;6.13;;;3.90;;
4971;SDS011;2501;51.214;6.768;2022-07-11T02:18:51;9.82;;;3.83;;
4971;SDS011;2501;51.214;6.768;2022-07-11T02:21:19;5.40;;;3.63;;
4971;SDS011;2501;51.214;6.768;2022-07-11T02:23:48;8.00;;;3.92;;
4971;SDS011;2501;51.214;6.768;2022-07-11T02:26:16;6.03;;;3.80;;
4971;SDS011;2501;51.214;6.768;2022-07-11T02:28:45;7.00;;;4.13;;
4971;SDS011;2501;51.214;6.768;2022-07-11T02:31:16;3.92;;;3.60;;
4971;SDS011;2501;51.214;6.768;2022-07-11T02:33:45;13.30;;;4.37;;
4971;SDS011;2501;51.214;6.768;2022-07-11T02:36:13;5.13;;;3.85;;
4971;SDS011;2501;51.214;6.768;2022-07-11T02:38:42;5.18;;;3.72;;
4971;SDS011;2501;51.214;6.768;2022-07-11T02:41:10;10.90;;;4.75;;
4971;SDS011;2501;51.214;6.768;2022-07-11T02:43:39;5.25;;;3.85;;
4971;SDS011;2501;51.214;6.768;2022-07-11T02:46:07;8.73;;;4.47;;
4971;SDS011;2501;51.214;6.768;2022-07-11T02:48:38;9.50;;;4.10;;
4971;SDS011;2501;51.214;6.768;2022-07-11T02:51:07;6.10;;;4.18;;
4971;SDS011;2501;51.214;6.768;2022-07-11T02:53:35;6.65;;;4.07;;
4971;SDS011;2501;51.214;6.768;2022-07-11T02:56:04;10.68;;;4.50;;
4971;SDS011;2501;51.214;6.768;2022-07-11T02:58:33;4.65;;;4.10;;
4971;SDS011;2501;51.214;6.768;2022-07-11T03:01:02;7.65;;;3.95;;
4971;SDS011;2501;51.214;6.768;2022-07-11T03:03:30;12.03;;;4.87;;
4971;SDS011;2501;51.214;6.768;2022-07-11T03:06:02;6.00;;;4.50;;
4971;SDS011;2501;51.214;6.768;2022-07-11T03:08:30;7.23;;;4.50;;
4971;SDS011;2501;51.214;6.768;2022-07-11T03:10:59;11.00;;;4.50;;
4971;SDS011;2501;51.214;6.768;2022-07-11T03:13:27;10.02;;;4.82;;
4971;SDS011;2501;51.214;6.768;2022-07-11T03:15:56;11.68;;;4.88;;
4971;SDS011;2501;51.214;6.768;2022-07-11T03:18:24;8.20;;;5.00;;
4971;SDS011;2501;51.214;6.768;2022-07-11T03:20:53;8.43;;;4.55;;
4971;SDS011;2501;51.214;6.768;2022-07-11T03:23:24;9.82;;;4.95;;
4971;SDS011;2501;51.214;6.768;2022-07-11T03:25:52;5.40;;;4.35;;
4971;SDS011;2501;51.214;6.768;2022-07-11T03:28:21;9.90;;;4.57;;
4971;SDS011;2501;51.214;6.768;2022-07-11T03:30:49;5.13;;;4.30;;
4971;SDS011;2501;51.214;6.768;2022-07-11T03:33:18;6.72;;;4.43;;
4971;SDS011;2501;51.214;6.768;2022-07-11T03:35:46;11.45;;;4.90;;
4971;SDS011;2501;51.214;6.768;2022-07-11T03:38:17;7.70;;;4.40;;
4971;SDS011;2501;51.214;6.768;2022-07-11T03:40:49;7.20;;;3.90;;
4971;SDS011;2501;51.214;6.768;2022-07-11T03:43:18;6.85;;;4.10;;
4971;SDS011;2501;51.214;6.768;2022-07-11T03:45:47;7.22;;;4.50;;
4971;SDS011;2501;51.214;6.768;2022-07-11T03:48:15;5.70;;;4.28;;
4971;SDS011;2501;51.214;6.768;2022-07-11T03:50:44;7.63;;;4.10;;
4971;SDS011;2501;51.214;6.768;2022-07-11T03:53:13;7.30;;;4.15;;
4971;SDS011;2501;51.214;6.768;2022-07-11T03:55:41;7.13;;;4.32;;
4971;SDS011;2501;51.214;6.768;2022-07-11T03:58:13;7.82;;;4.20;;
4971;SDS011;2501;51.214;6.768;2022-07-11T04:00:41;6.75;;;4.60;;
4971;SDS011;2501;51.214;6.768;2022-07-11T04:03:10;9.40;;;4.10;;
4971;SDS011;2501;51.214;6.768;2022-07-11T04:05:38;6.00;;;3.90;;
4971;SDS011;2501;51.214;6.768;2022-07-11T04:08:06;9.97;;;3.60;;
4971;SDS011;2501;51.214;6.768;2022-07-11T04:10:35;8.90;;;4.13;;
4971;SDS011;2501;51.214;6.768;2022-07-11T04:13:03;5.50;;;3.75;;
4971;SDS011;2501;51.214;6.768;2022-07-11T04:15:35;4.72;;;3.50;;
4971;SDS011;2501;51.214;6.768;2022-07-11T04:18:03;10.13;;;3.97;;
4971;SDS011;2501;51.214;6.768;2022-07-11T04:20:32;8.25;;;4.35;;
4971;SDS011;2501;51.214;6.768;2022-07-11T04:23:00;7.90;;;3.55;;
4971;SDS011;2501;51.214;6.768;2022-07-11T04:25:32;5.20;;;3.90;;
4971;SDS011;2501;51.214;6.768;2022-07-11T04:28:01;7.05;;;3.58;;
4971;SDS011;2501;51.214;6.768;2022-07-11T04:30:29;5.20;;;3.08;;
4971;SDS011;2501;51.214;6.768;2022-07-11T04:33:00;3.90;;;2.92;;
4971;SDS011;2501;51.214;6.768;2022-07-11T04:35:29;7.47;;;3.60;;
4971;SDS011;2501;51.214;6.768;2022-07-11T04:37:58;6.47;;;3.70;;
4971;SDS011;2501;51.214;6.768;2022-07-11T04:40:27;5.00;;;3.20;;
4971;SDS011;2501;51.214;6.768;2022-07-11T04:42:55;4.88;;;3.22;;
4971;SDS011;2501;51.214;6.768;2022-07-11T04:45:24;6.22;;;3.40;;
4971;SDS011;2501;51.214;6.768;2022-07-11T04:47:52;5.13;;;3.10;;
4971;SDS011;2501;51.214;6.768;2022-07-11T04:50:24;5.47;;;3.47;;
4971;SDS011;2501;51.214;6.768;2022-07-11T04:52:52;8.60;;;6.45;;
4971;SDS011;2501;51.214;6.768;2022-07-11T04:55:21;12.00;;;7.00;;
4971;SDS011;2501;51.214;6.768;2022-07-11T04:57:50;10.50;;;7.00;;
4971;SDS011;2501;51.214;6.768;2022-07-11T05:00:19;6.93;;;5.20;;
4971;SDS011;2501;51.214;6.768;2022-07-11T05:02:47;9.90;;;3.67;;
4971;SDS011;2501;51.214;6.768;2022-07-11T05:05:16;3.80;;;3.40;;
4971;SDS011;2501;51.214;6.768;2022-07-11T05:07:47;2.75;;;2.50;;
4971;SDS011;2501;51.214;6.768;2022-07-11T05:10:15;2.47;;;2.28;;
4971;SDS011;2501;51.214;6.768;2022-07-11T05:12:44;2.50;;;1.90;;
4971;SDS011;2501;51.214;6.768;2022-07-11T05:15:12;1.90;;;1.80;;
4971;SDS011;2501;51.214;6.768;2022-07-11T05:17:41;2.70;;;2.50;;
4971;SDS011;2501;51.214;6.768;2022-07-11T05:20:10;3.00;;;2.80;;
4971;SDS011;2501;51.214;6.768;2022-07-11T05:22:39;2.65;;;2.55;;
4971;SDS011;2501;51.214;6.768;2022-07-11T05:25:10;5.85;;;3.00;;
4971;SDS011;2501;51.214;6.768;2022-07-11T05:27:38;3.60;;;3.40;;
4971;SDS011;2501;51.214;6.768;2022-07-11T05:30:08;3.60;;;3.30;;
4971;SDS011;2501;51.214;6.768;2022-07-11T05:32:37;4.10;;;3.60;;
4971;SDS011;2501;51.214;6.768;2022-07-11T05:35:06;7.63;;;4.40;;
4971;SDS011;2501;51.214;6.768;2022-07-11T05:37:35;4.10;;;3.80;;
4971;SDS011;2501;51.214;6.768;2022-07-11T05:40:05;5.43;;;4.63;;
4971;SDS011;2501;51.214;6.768;2022-07-11T05:42:37;6.72;;;4.55;;
4971;SDS011;2501;51.214;6.768;2022-07-11T05:45:06;7.13;;;5.70;;
4971;SDS011;2501;51.214;6.768;2022-07-11T05:47:36;6.00;;;5.50;;
4971;SDS011;2501;51.214;6.768;2022-07-11T05:50:05;7.45;;;5.30;;
4971;SDS011;2501;51.214;6.768;2022-07-11T05:52:34;10.70;;;8.25;;
4971;SDS011;2501;51.214;6.768;2022-07-11T05:55:06;14.27;;;9.60;;
4971;SDS011;2501;51.214;6.768;2022-07-11T05:57:37;12.63;;;9.30;;
4971;SDS011;2501;51.214;6.768;2022-07-11T06:00:07;10.60;;;9.50;;
4971;SDS011;2501;51.214;6.768;2022-07-11T06:02:36;10.73;;;9.23;;
4971;SDS011;2501;51.214;6.768;2022-07-11T06:05:05;14.48;;;9.38;;
4971;SDS011;2501;51.214;6.768;2022-07-11T06:07:34;8.43;;;7.50;;
4971;SDS011;2501;51.214;6.768;2022-07-11T06:10:15;9.00;;;6.70;;
4971;SDS011;2501;51.214;6.768;2022-07-11T06:12:46;9.25;;;7.68;;
4971;SDS011;2501;51.214;6.768;2022-07-11T06:15:14;8.90;;;7.63;;
4971;SDS011;2501;51.214;6.768;2022-07-11T06:17:45;6.32;;;5.30;;
4971;SDS011;2501;51.214;6.768;2022-07-11T06:20:13;11.10;;;6.90;;
4971;SDS011;2501;51.214;6.768;2022-07-11T06:22:42;19.45;;;11.60;;
4971;SDS011;2501;51.214;6.768;2022-07-11T06:25:10;15.35;;;9.82;;
4971;SDS011;2501;51.214;6.768;2022-07-11T06:27:39;10.65;;;7.88;;
4971;SDS011;2501;51.214;6.768;2022-07-11T06:30:10;18.70;;;8.73;;
4971;SDS011;2501;51.214;6.768;2022-07-11T06:32:39;12.63;;;8.18;;
4971;SDS011;2501;51.214;6.768;2022-07-11T06:35:08;15.20;;;7.13;;
4971;SDS011;2501;51.214;6.768;2022-07-11T06:37:36;12.93;;;7.95;;
4971;SDS011;2501;51.214;6.768;2022-07-11T06:40:05;10.15;;;7.70;;
4971;SDS011;2501;51.214;6.768;2022-07-11T06:42:37;12.35;;;9.30;;
4971;SDS011;2501;51.214;6.768;2022-07-11T06:45:07;14.13;;;10.98;;
4971;SDS011;2501;51.214;6.768;2022-07-11T06:47:38;14.52;;;11.20;;
4971;SDS011;2501;51.214;6.768;2022-07-11T06:50:07;19.23;;;12.25;;
4971;SDS011;2501;51.214;6.768;2022-07-11T06:52:36;16.20;;;11.18;;
4971;SDS011;2501;51.214;6.768;2022-07-11T06:55:05;12.83;;;10.13;;
4971;SDS011;2501;51.214;6.768;2022-07-11T06:57:34;9.70;;;8.80;;
4971;SDS011;2501;51.214;6.768;2022-07-11T07:00:03;10.87;;;7.57;;
4971;SDS011;2501;51.214;6.768;2022-07-11T07:02:35;12.70;;;7.28;;
4971;SDS011;2501;51.214;6.768;2022-07-11T07:05:05;10.30;;;6.80;;
4971;SDS011;2501;51.214;6.768;2022-07-11T07:07:34;7.05;;;6.35;;
4971;SDS011;2501;51.214;6.768;2022-07-11T07:10:03;7.68;;;6.78;;
4971;SDS011;2501;51.214;6.768;2022-07-11T07:12:32;8.32;;;7.40;;
4971;SDS011;2501;51.214;6.768;2022-07-11T07:15:05;8.18;;;6.68;;
4971;SDS011;2501;51.214;6.768;2022-07-11T07:17:37;9.13;;;7.20;;
4971;SDS011;2501;51.214;6.768;2022-07-11T07:20:06;10.23;;;6.77;;
4971;SDS011;2501;51.214;6.768;2022-07-11T07:22:37;9.05;;;6.80;;
4971;SDS011;2501;51.214;6.768;2022-07-11T07:25:07;8.02;;;7.22;;
4971;SDS011;2501;51.214;6.768;2022-07-11T07:27:36;9.50;;;8.50;;
4971;SDS011;2501;51.214;6.768;2022-07-11T07:30:05;12.33;;;9.53;;
4971;SDS011;2501;51.214;6.768;2022-07-11T07:32:38;16.40;;;12.90;;
4971;SDS011;2501;51.214;6.768;2022-07-11T07:35:06;21.98;;;15.23;;
4971;SDS011;2501;51.214;6.768;2022-07-11T07:37:35;16.15;;;12.77;;
4971;SDS011;2501;51.214;6.768;2022-07-11T07:40:04;13.93;;;11.93;;
4971;SDS011;2501;51.214;6.768;2022-07-11T07:42:34;11.27;;;9.80;;
4971;SDS011;2501;51.214;6.768;2022-07-11T07:45:02;8.35;;;7.03;;
4971;SDS011;2501;51.214;6.768;2022-07-11T07:47:31;10.20;;;6.40;;
4971;SDS011;2501;51.214;6.768;2022-07-11T07:50:04;9.52;;;5.65;;
4971;SDS011;2501;51.214;6.768;2022-07-11T07:52:34;8.70;;;4.88;;
4971;SDS011;2501;51.214;6.768;2022-07-11T07:55:02;7.18;;;5.30;;
4971;SDS011;2501;51.214;6.768;2022-07-11T07:57:31;5.75;;;5.15;;
4971;SDS011;2501;51.214;6.768;2022-07-11T08:00:03;7.38;;;6.20;;
4971;SDS011;2501;51.214;6.768;2022-07-11T08:02:45;8.10;;;5.97;;
4971;SDS011;2501;51.214;6.768;2022-07-11T08:05:18;10.88;;;6.60;;
4971;SDS011;2501;51.214;6.768;2022-07-11T08:07:47;10.63;;;6.00;;
4971;SDS011;2501;51.214;6.768;2022-07-11T08:10:15;5.05;;;4.63;;
4971;SDS011;2501;51.214;6.768;2022-07-11T08:12:44;5.00;;;4.20;;
4971;SDS011;2501;51.214;6.768;2022-07-11T08:15:12;9.10;;;5.00;;
4971;SDS011;2501;51.214;6.768;2022-07-11T08:17:41;10.85;;;7.20;;
4971;SDS011;2501;51.214;6.768;2022-07-11T08:20:09;10.70;;;6.70;;
4971;SDS011;2501;51.214;6.768;2022-07-11T08:22:41;8.52;;;6.88;;
4971;SDS011;2501;51.214;6.768;2022-07-11T08:25:09;7.97;;;6.25;;
4971;SDS011;2501;51.214;6.768;2022-07-11T08:27:38;7.35;;;6.75;;
4971;SDS011;2501;51.214;6.768;2022-07-11T08:30:07;9.18;;;6.68;;
4971;SDS011;2501;51.214;6.768;2022-07-11T08:32:37;10.18;;;6.90;;
4971;SDS011;2501;51.214;6.768;2022-07-11T08:35:07;9.43;;;7.40;;
4971;SDS011;2501;51.214;6.768;2022-07-11T08:37:36;8.77;;;6.93;;
4971;SDS011;2501;51.214;6.768;2022-07-11T08:40:08;9.75;;;7.10;;
4971;SDS011;2501;51.214;6.768;2022-07-11T08:42:39;10.15;;;6.97;;
4971;SDS011;2501;51.214;6.768;2022-07-11T08:45:10;13.23;;;7.80;;
4971;SDS011;2501;51.214;6.768;2022-07-11T08:47:39;7.43;;;6.82;;
4971;SDS011;2501;51.214;6.768;2022-07-11T08:50:09;8.20;;;6.88;;
4971;SDS011;2501;51.214;6.768;2022-07-11T08:52:39;10.68;;;7.60;;
4971;SDS011;2501;51.214;6.768;2022-07-11T08:55:10;9.43;;;8.25;;
4971;SDS011;2501;51.214;6.768;2022-07-11T08:57:39;9.75;;;7.78;;
4971;SDS011;2501;51.214;6.768;2022-07-11T09:00:08;9.98;;;8.50;;
4971;SDS011;2501;51.214;6.768;2022-07-11T09:02:37;15.95;;;8.60;;
4971;SDS011;2501;51.214;6.768;2022-07-11T09:05:10;12.77;;;7.80;;
4971;SDS011;2501;51.214;6.768;2022-07-11T09:07:42;9.90;;;8.13;;
4971;SDS011;2501;51.214;6.768;2022-07-11T09:10:14;9.63;;;8.48;;
4971;SDS011;2501;51.214;6.768;2022-07-11T09:15:35;14.90;;;11.20;;
4971;SDS011;2501;51.214;6.768;2022-07-11T09:18:06;14.85;;;10.90;;
4971;SDS011;2501;51.214;6.768;2022-07-11T09:20:59;17.52;;;11.77;;
4971;SDS011;2501;51.214;6.768;2022-07-11T09:23:41;20.60;;;12.55;;
4971;SDS011;2501;51.214;6.768;2022-07-11T09:26:26;13.93;;;12.32;;
4971;SDS011;2501;51.214;6.768;2022-07-11T09:29:01;15.13;;;10.90;;
4971;SDS011;2501;51.214;6.768;2022-07-11T09:31:32;14.75;;;11.20;;
4971;SDS011;2501;51.214;6.768;2022-07-11T09:34:05;15.07;;;11.40;;
4971;SDS011;2501;51.214;6.768;2022-07-11T09:36:35;15.63;;;11.23;;
4971;SDS011;2501;51.214;6.768;2022-07-11T09:39:05;10.65;;;9.38;;
4971;SDS011;2501;51.214;6.768;2022-07-11T09:41:38;11.30;;;9.15;;
4971;SDS011;2501;51.214;6.768;2022-07-11T09:44:11;10.25;;;8.95;;
4971;SDS011;2501;51.214;6.768;2022-07-11T09:46:40;13.80;;;8.63;;
4971;SDS011;2501;51.214;6.768;2022-07-11T09:49:10;12.73;;;8.60;;
4971;SDS011;2501;51.214;6.768;2022-07-11T09:51:39;8.67;;;7.00;;
4971;SDS011;2501;51.214;6.768;2022-07-11T09:54:09;9.75;;;8.05;;
4971;SDS011;2501;51.214;6.768;2022-07-11T09:56:41;8.30;;;7.50;;
4971;SDS011;2501;51.214;6.768;2022-07-11T09:59:17;8.43;;;7.57;;
4971;SDS011;2501;51.214;6.768;2022-07-11T10:01:47;9.63;;;7.80;;
4971;SDS011;2501;51.214;6.768;2022-07-11T10:04:15;8.73;;;7.93;;
4971;SDS011;2501;51.214;6.768;2022-07-11T10:06:44;10.15;;;7.40;;
4971;SDS011;2501;51.214;6.768;2022-07-11T10:09:12;7.83;;;7.03;;
4971;SDS011;2501;51.214;6.768;2022-07-11T10:11:43;7.53;;;6.73;;
4971;SDS011;2501;51.214;6.768;2022-07-11T10:14:12;6.53;;;6.03;;
4971;SDS011;2501;51.214;6.768;2022-07-11T10:16:42;7.30;;;6.60;;
4971;SDS011;2501;51.214;6.768;2022-07-11T10:19:19;6.07;;;5.50;;
4971;SDS011;2501;51.214;6.768;2022-07-11T10:22:01;6.25;;;5.20;;
4971;SDS011;2501;51.214;6.768;2022-07-11T10:24:36;9.40;;;5.07;;
4971;SDS011;2501;51.214;6.768;2022-07-11T10:27:18;5.40;;;5.00;;
4971;SDS011;2501;51.214;6.768;2022-07-11T10:29:55;4.83;;;4.37;;
4971;SDS011;2501;51.214;6.768;2022-07-11T10:32:26;4.97;;;4.57;;
4971;SDS011;2501;51.214;6.768;2022-07-11T10:35:05;5.68;;;5.07;;
4971;SDS011;2501;51.214;6.768;2022-07-11T10:37:46;5.97;;;4.30;;
4971;SDS011;2501;51.214;6.768;2022-07-11T10:40:17;4.13;;;3.75;;
4971;SDS011;2501;51.214;6.768;2022-07-11T10:43:15;3.80;;;3.60;;
4971;SDS011;2501;51.214;6.768;2022-07-11T10:45:59;3.55;;;3.33;;
4971;SDS011;2501;51.214;6.768;2022-07-11T10:48:29;4.32;;;4.00;;
4971;SDS011;2501;51.214;6.768;2022-07-11T10:53:50;4.50;;;4.20;;
4971;SDS011;2501;51.214;6.768;2022-07-11T10:59:24;3.70;;;3.40;;
4971;SDS011;2501;51.214;6.768;2022-07-11T11:02:08;4.00;;;3.70;;
4971;SDS011;2501;51.214;6.768;2022-07-11T11:04:42;4.53;;;4.00;;
4971;SDS011;2501;51.214;6.768;2022-07-11T11:07:28;4.15;;;3.75;;
4971;SDS011;2501;51.214;6.768;2022-07-11T11:10:06;4.55;;;3.60;;
4971;SDS011;2501;51.214;6.768;2022-07-11T11:13:09;3.70;;;3.50;;
4971;SDS011;2501;51.214;6.768;2022-07-11T11:15:42;3.30;;;3.00;;
4971;SDS011;2501;51.214;6.768;2022-07-11T11:21:21;3.20;;;2.30;;
4971;SDS011;2501;51.214;6.768;2022-07-11T11:24:00;2.50;;;2.30;;
4971;SDS011;2501;51.214;6.768;2022-07-11T11:29:28;1.90;;;1.80;;
4971;SDS011;2501;51.214;6.768;2022-07-11T11:32:00;2.70;;;1.80;;
4971;SDS011;2501;51.214;6.768;2022-07-11T11:34:28;2.10;;;2.00;;
4971;SDS011;2501;51.214;6.768;2022-07-11T11:36:58;2.37;;;2.27;;
4971;SDS011;2501;51.214;6.768;2022-07-11T11:39:29;1.90;;;1.80;;
4971;SDS011;2501;51.214;6.768;2022-07-11T11:42:05;1.30;;;1.30;;
4971;SDS011;2501;51.214;6.768;2022-07-11T11:44:46;1.85;;;1.13;;
4971;SDS011;2501;51.214;6.768;2022-07-11T11:47:21;1.65;;;1.35;;
4971;SDS011;2501;51.214;6.768;2022-07-11T11:49:50;1.40;;;1.30;;
4971;SDS011;2501;51.214;6.768;2022-07-11T11:52:19;1.42;;;1.33;;
4971;SDS011;2501;51.214;6.768;2022-07-11T11:54:53;1.27;;;1.17;;
4971;SDS011;2501;51.214;6.768;2022-07-11T11:57:24;1.40;;;1.40;;
4971;SDS011;2501;51.214;6.768;2022-07-11T11:59:53;3.50;;;2.50;;
4971;SDS011;2501;51.214;6.768;2022-07-11T12:02:26;1.60;;;1.50;;
4971;SDS011;2501;51.214;6.768;2022-07-11T12:04:56;1.75;;;1.65;;
4971;SDS011;2501;51.214;6.768;2022-07-11T12:07:27;8.55;;;2.40;;
4971;SDS011;2501;51.214;6.768;2022-07-11T12:09:57;1.90;;;1.80;;
4971;SDS011;2501;51.214;6.768;2022-07-11T12:12:29;2.20;;;2.00;;
4971;SDS011;2501;51.214;6.768;2022-07-11T12:15:25;1.90;;;1.80;;
4971;SDS011;2501;51.214;6.768;2022-07-11T12:17:59;2.00;;;1.90;;
4971;SDS011;2501;51.214;6.768;2022-07-11T12:20:36;2.13;;;2.03;;
4971;SDS011;2501;51.214;6.768;2022-07-11T12:23:07;5.82;;;2.42;;
4971;SDS011;2501;51.214;6.768;2022-07-11T12:25:36;2.25;;;2.05;;
4971;SDS011;2501;51.214;6.768;2022-07-11T12:28:06;3.30;;;2.70;;
4971;SDS011;2501;51.214;6.768;2022-07-11T12:30:36;4.68;;;3.40;;
4971;SDS011;2501;51.214;6.768;2022-07-11T12:33:07;2.60;;;2.50;;
4971;SDS011;2501;51.214;6.768;2022-07-11T12:35:52;11.40;;;2.30;;
4971;SDS011;2501;51.214;6.768;2022-07-11T12:38:22;1.77;;;1.67;;
4971;SDS011;2501;51.214;6.768;2022-07-11T12:40:58;1.80;;;1.70;;
4971;SDS011;2501;51.214;6.768;2022-07-11T12:43:40;1.13;;;1.10;;
4971;SDS011;2501;51.214;6.768;2022-07-11T12:46:22;7.10;;;1.15;;
4971;SDS011;2501;51.214;6.768;2022-07-11T12:48:53;2.10;;;0.90;;
4971;SDS011;2501;51.214;6.768;2022-07-11T12:51:28;1.48;;;1.08;;
4971;SDS011;2501;51.214;6.768;2022-07-11T12:54:01;1.10;;;0.90;;
4971;SDS011;2501;51.214;6.768;2022-07-11T12:56:30;2.90;;;1.20;;
4971;SDS011;2501;51.214;6.768;2022-07-11T12:58:59;3.17;;;1.77;;
4971;SDS011;2501;51.214;6.768;2022-07-11T13:01:30;2.00;;;1.50;;
4971;SDS011;2501;51.214;6.768;2022-07-11T13:04:01;1.90;;;1.50;;
4971;SDS011;2501;51.214;6.768;2022-07-11T13:06:30;4.82;;;1.40;;
4971;SDS011;2501;51.214;6.768;2022-07-11T13:09:13;1.75;;;1.65;;
4971;SDS011;2501;51.214;6.768;2022-07-11T13:11:43;1.30;;;1.20;;
4971;SDS011;2501;51.214;6.768;2022-07-11T13:14:11;1.40;;;1.30;;
4971;SDS011;2501;51.214;6.768;2022-07-11T13:16:52;2.30;;;1.27;;
4971;SDS011;2501;51.214;6.768;2022-07-11T13:19:23;1.50;;;1.40;;
4971;SDS011;2501;51.214;6.768;2022-07-11T13:21:51;3.30;;;2.50;;
4971;SDS011;2501;51.214;6.768;2022-07-11T13:24:20;3.30;;;2.60;;
4971;SDS011;2501;51.214;6.768;2022-07-11T13:26:50;3.20;;;3.00;;
4971;SDS011;2501;51.214;6.768;2022-07-11T13:29:18;6.13;;;3.17;;
4971;SDS011;2501;51.214;6.768;2022-07-11T13:31:47;2.22;;;2.13;;
4971;SDS011;2501;51.214;6.768;2022-07-11T13:34:15;4.60;;;2.80;;
4971;SDS011;2501;51.214;6.768;2022-07-11T13:36:46;3.00;;;2.30;;
4971;SDS011;2501;51.214;6.768;2022-07-11T13:39:15;2.50;;;2.30;;
4971;SDS011;2501;51.214;6.768;2022-07-11T13:41:44;5.45;;;3.40;;
4971;SDS011;2501;51.214;6.768;2022-07-11T13:44:12;4.22;;;3.90;;
4971;SDS011;2501;51.214;6.768;2022-07-11T13:46:40;4.63;;;3.70;;
4971;SDS011;2501;51.214;6.768;2022-07-11T13:49:09;4.05;;;3.75;;
4971;SDS011;2501;51.214;6.768;2022-07-11T13:51:42;4.65;;;4.25;;
4971;SDS011;2501;51.214;6.768;2022-07-11T13:54:13;5.60;;;5.20;;
4971;SDS011;2501;51.214;6.768;2022-07-11T13:56:42;5.80;;;5.30;;
4971;SDS011;2501;51.214;6.768;2022-07-11T13:59:10;7.97;;;3.80;;
4971;SDS011;2501;51.214;6.768;2022-07-11T14:01:39;3.70;;;3.40;;
4971;SDS011;2501;51.214;6.768;2022-07-11T14:04:07;5.00;;;4.53;;
4971;SDS011;2501;51.214;6.768;2022-07-11T14:06:36;7.00;;;5.63;;
4971;SDS011;2501;51.214;6.768;2022-07-11T14:09:05;5.03;;;4.53;;
4971;SDS011;2501;51.214;6.768;2022-07-11T14:11:36;4.10;;;3.70;;
4971;SDS011;2501;51.214;6.768;2022-07-11T14:14:04;7.80;;;4.25;;
4971;SDS011;2501;51.214;6.768;2022-07-11T14:16:33;2.20;;;2.10;;
4971;SDS011;2501;51.214;6.768;2022-07-11T14:19:02;2.20;;;2.10;;
4971;SDS011;2501;51.214;6.768;2022-07-11T14:21:32;3.80;;;2.40;;
4971;SDS011;2501;51.214;6.768;2022-07-11T14:24:01;2.35;;;1.92;;
4971;SDS011;2501;51.214;6.768;2022-07-11T14:26:30;2.00;;;1.65;;
4971;SDS011;2501;51.214;6.768;2022-07-11T14:29:02;2.60;;;1.42;;
4971;SDS011;2501;51.214;6.768;2022-07-11T14:31:32;1.73;;;1.15;;
4971;SDS011;2501;51.214;6.768;2022-07-11T14:34:01;1.50;;;1.00;;
4971;SDS011;2501;51.214;6.768;2022-07-11T14:36:29;1.13;;;1.03;;
4971;SDS011;2501;51.214;6.768;2022-07-11T14:38:58;1.00;;;1.00;;
4971;SDS011;2501;51.214;6.768;2022-07-11T14:41:27;2.00;;;1.20;;
4971;SDS011;2501;51.214;6.768;2022-07-11T14:43:56;0.95;;;0.95;;
4971;SDS011;2501;51.214;6.768;2022-07-11T14:46:28;1.20;;;0.93;;
4971;SDS011;2501;51.214;6.768;2022-07-11T14:48:57;1.10;;;1.00;;
4971;SDS011;2501;51.214;6.768;2022-07-11T14:51:25;1.60;;;1.10;;
4971;SDS011;2501;51.214;6.768;2022-07-11T14:53:54;1.33;;;1.00;;
4971;SDS011;2501;51.214;6.768;2022-07-11T14:56:23;1.20;;;1.10;;
4971;SDS011;2501;51.214;6.768;2022-07-11T14:58:52;1.23;;;1.13;;
4971;SDS011;2501;51.214;6.768;2022-07-11T15:01:21;1.80;;;1.40;;
4971;SDS011;2501;51.214;6.768;2022-07-11T15:03:52;1.30;;;1.20;;
4971;SDS011;2501;51.214;6.768;2022-07-11T15:06:20;2.95;;;1.52;;
4971;SDS011;2501;51.214;6.768;2022-07-11T15:09:09;4.20;;;1.65;;
4971;SDS011;2501;51.214;6.768;2022-07-11T15:11:50;1.77;;;1.67;;
4971;SDS011;2501;51.214;6.768;2022-07-11T15:14:31;6.30;;;1.90;;
4971;SDS011;2501;51.214;6.768;2022-07-11T15:17:00;2.75;;;1.95;;
4971;SDS011;2501;51.214;6.768;2022-07-11T15:19:31;2.28;;;1.70;;
4971;SDS011;2501;51.214;6.768;2022-07-11T15:21:59;2.38;;;1.70;;
4971;SDS011;2501;51.214;6.768;2022-07-11T15:24:28;2.15;;;2.05;;
4971;SDS011;2501;51.214;6.768;2022-07-11T15:26:56;2.10;;;2.00;;
4971;SDS011;2501;51.214;6.768;2022-07-11T15:29:25;2.97;;;2.10;;
4971;SDS011;2501;51.214;6.768;2022-07-11T15:31:53;2.38;;;2.10;;
4971;SDS011;2501;51.214;6.768;2022-07-11T15:34:22;1.90;;;1.80;;
4971;SDS011;2501;51.214;6.768;2022-07-11T15:36:53;2.20;;;2.10;;
4971;SDS011;2501;51.214;6.768;2022-07-11T15:39:21;2.05;;;1.95;;
4971;SDS011;2501;51.214;6.768;2022-07-11T15:41:50;2.70;;;2.50;;
4971;SDS011;2501;51.214;6.768;2022-07-11T15:44:18;2.60;;;2.40;;
4971;SDS011;2501;51.214;6.768;2022-07-11T15:46:47;2.85;;;2.65;;
4971;SDS011;2501;51.214;6.768;2022-07-11T15:49:16;2.45;;;2.25;;